Time;durP1;ratioP1;P1;durP2;ratioP2;P2;SDS_P1;SDS_P2;PMS_P1;PMS_P2;Temp;Humidity;BMP_temperature;BMP_pressure;BME280_temperature;BME280_humidity;BME280_pressure;Samples;Min_cycle;Max_cycle;Signal;HPM_P1;HPM_P2
2021/04/16 00:00:34;;;;;;;;;;;2.90;99.90;;;;;;4997730;28;19929;-76
2021/04/16 00:03:02;;;;;;;;;;;2.80;99.90;;;;;;4996775;28;19929;-76
2021/04/16 00:05:29;;;;;;;;;;;2.80;99.90;;;;;;4996997;28;19998;-76
2021/04/16 00:07:58;;;;;;;;;;;2.80;99.90;;;;;;4998988;28;19922;-77
2021/04/16 00:10:28;;;;;;;;;;;2.80;99.90;;;;;;4998509;28;19969;-75
2021/04/16 00:12:55;;;;;;;;;;;2.80;99.90;;;;;;4980074;28;19947;-77
2021/04/16 00:15:24;;;;;;;;;;;2.90;99.90;;;;;;4995992;28;20533;-76
2021/04/16 00:17:52;;;;;;;;;;;2.80;99.90;;;;;;4999677;28;20306;-79
2021/04/16 00:20:21;;;;;;;;;;;2.80;99.90;;;;;;5004123;28;19922;-77
2021/04/16 00:22:48;;;;;;;;;;;2.80;99.90;;;;;;5002251;28;19921;-76
2021/04/16 00:25:17;;;;;;;;;;;2.80;99.90;;;;;;5004073;28;20020;-76
2021/04/16 00:27:44;;;;;;;;;;;2.80;99.90;;;;;;5005221;28;19928;-76
2021/04/16 00:30:12;;;;;;;;;;;2.80;99.90;;;;;;5005915;28;19996;-76
2021/04/16 00:32:39;;;;;;;;;;;2.80;99.90;;;;;;5004518;28;19922;-76
2021/04/16 00:35:09;;;;;;;;;;;2.80;99.90;;;;;;5004559;28;19921;-76
2021/04/16 00:37:37;;;;;;;;;;;2.80;99.90;;;;;;5004411;28;20326;-76
2021/04/16 00:40:05;;;;;;;;;;;2.80;99.90;;;;;;5002874;28;19968;-75
2021/04/16 00:42:33;;;;;;;;;;;2.80;99.90;;;;;;4999601;28;19929;-76
2021/04/16 00:45:00;;;;;;;;;;;2.90;99.90;;;;;;4998346;28;19963;-77
2021/04/16 00:47:28;;;;;;;;;;;2.80;99.90;;;;;;4998212;28;19986;-77
2021/04/16 00:50:01;;;;;;;;;;;2.90;99.90;;;;;;4997435;28;19973;-77
2021/04/16 00:52:30;;;;;;;;;;;2.80;99.90;;;;;;4998237;28;19922;-76
2021/04/16 00:54:58;;;;;;;;;;;2.80;99.90;;;;;;5000204;28;19922;-77
2021/04/16 00:57:26;;;;;;;;;;;2.80;99.90;;;;;;4999956;28;19922;-79
2021/04/16 00:59:57;;;;;;;;;;;2.80;99.90;;;;;;5000348;28;19921;-77
2021/04/16 01:02:25;;;;;;;;;;;2.90;99.90;;;;;;4998948;28;19977;-77
2021/04/16 01:04:53;;;;;;;;;;;2.80;99.90;;;;;;4999498;28;20258;-77
2021/04/16 01:07:21;;;;;;;;;;;2.70;99.90;;;;;;5000638;28;19925;-76
2021/04/16 01:09:50;;;;;;;;;;;2.70;99.90;;;;;;4999851;28;19922;-78
2021/04/16 01:12:18;;;;;;;;;;;2.80;99.90;;;;;;4998573;28;19957;-76
2021/04/16 01:14:46;;;;;;;;;;;2.80;99.90;;;;;;4999153;28;19928;-77
2021/04/16 01:17:39;;;;;;;;;;;2.80;99.90;;;;;;5000078;28;19952;-77
2021/04/16 01:20:09;;;;;;;;;;;2.70;99.90;;;;;;4992583;28;19976;-76
2021/04/16 01:22:42;;;;;;;;;;;2.70;99.90;;;;;;4999828;28;19928;-76
2021/04/16 01:25:11;;;;;;;;;;;2.70;99.90;;;;;;4999042;28;20036;-77
2021/04/16 01:27:41;;;;;;;;;;;2.70;99.90;;;;;;4997623;28;19922;-76
2021/04/16 01:30:10;;;;;;;;;;;2.70;99.90;;;;;;4998735;28;19921;-76
2021/04/16 01:32:38;;;;;;;;;;;2.60;99.90;;;;;;4999559;28;20315;-77
2021/04/16 01:35:06;;;;;;;;;;;2.70;99.90;;;;;;5002486;28;19921;-76
2021/04/16 01:37:35;;;;;;;;;;;2.70;99.90;;;;;;5000529;28;20383;-76
2021/04/16 01:40:07;;;;;;;;;;;2.70;99.90;;;;;;5000269;28;20398;-76
2021/04/16 01:42:35;;;;;;;;;;;2.70;99.90;;;;;;5001417;28;19922;-78
2021/04/16 01:45:04;;;;;;;;;;;2.70;99.90;;;;;;5002274;28;20290;-76
2021/04/16 01:47:31;;;;;;;;;;;2.70;99.90;;;;;;5002446;28;20001;-76
2021/04/16 01:49:59;;;;;;;;;;;2.70;99.90;;;;;;5003886;28;19949;-76
2021/04/16 01:52:27;;;;;;;;;;;2.70;99.90;;;;;;5003361;28;19921;-77
2021/04/16 01:54:54;;;;;;;;;;;2.60;99.90;;;;;;5001444;28;19922;-76
2021/04/16 01:57:24;;;;;;;;;;;2.70;99.90;;;;;;5001346;28;20335;-76
2021/04/16 01:59:52;;;;;;;;;;;2.70;99.90;;;;;;5002011;28;19926;-76
2021/04/16 02:02:25;;;;;;;;;;;2.70;99.90;;;;;;4999844;28;19981;-76
2021/04/16 02:04:52;;;;;;;;;;;2.60;99.90;;;;;;5001830;28;19929;-76
2021/04/16 02:07:22;;;;;;;;;;;2.70;99.90;;;;;;5002713;28;19925;-76
2021/04/16 02:09:49;;;;;;;;;;;2.70;99.90;;;;;;5000016;28;19922;-76
2021/04/16 02:12:20;;;;;;;;;;;2.70;99.90;;;;;;4998513;28;20084;-77
2021/04/16 02:17:42;;;;;;;;;;;2.60;99.90;;;;;;5003184;28;19925;-77
2021/04/16 02:20:12;;;;;;;;;;;2.70;99.90;;;;;;5000152;28;19928;-75
2021/04/16 02:22:39;;;;;;;;;;;2.60;99.90;;;;;;4997321;28;20315;-76
2021/04/16 02:25:08;;;;;;;;;;;2.70;99.90;;;;;;5001852;28;19921;-76
2021/04/16 02:27:35;;;;;;;;;;;2.60;99.90;;;;;;5002241;28;19921;-76
2021/04/16 02:30:04;;;;;;;;;;;2.60;99.90;;;;;;4968485;28;19928;-76
2021/04/16 02:32:32;;;;;;;;;;;2.60;99.90;;;;;;4997990;28;20363;-76
2021/04/16 02:35:00;;;;;;;;;;;2.60;99.90;;;;;;5001908;28;19932;-76
2021/04/16 02:37:28;;;;;;;;;;;2.50;99.90;;;;;;5004852;28;19922;-79
2021/04/16 02:39:55;;;;;;;;;;;2.50;99.90;;;;;;5002556;28;19922;-76
2021/04/16 02:42:22;;;;;;;;;;;2.60;99.90;;;;;;5003014;28;20025;-76
2021/04/16 02:44:51;;;;;;;;;;;2.50;99.90;;;;;;5002506;28;19929;-77
2021/04/16 02:47:18;;;;;;;;;;;2.50;99.90;;;;;;4999204;28;19956;-77
2021/04/16 02:49:45;;;;;;;;;;;2.40;99.90;;;;;;5001858;28;19921;-76
2021/04/16 02:52:14;;;;;;;;;;;2.50;99.90;;;;;;5003144;28;20278;-76
2021/04/16 02:54:41;;;;;;;;;;;2.60;99.90;;;;;;5002489;28;19921;-76
2021/04/16 02:57:08;;;;;;;;;;;2.60;99.90;;;;;;5002129;28;19922;-76
2021/04/16 02:59:35;;;;;;;;;;;2.50;99.90;;;;;;5000691;28;19938;-79
2021/04/16 03:02:04;;;;;;;;;;;2.60;99.90;;;;;;5001061;28;19922;-76
2021/04/16 03:04:32;;;;;;;;;;;2.60;99.90;;;;;;5002494;28;19921;-76
2021/04/16 03:06:59;;;;;;;;;;;2.60;99.90;;;;;;5002271;28;19961;-76
2021/04/16 03:09:27;;;;;;;;;;;2.60;99.90;;;;;;5003065;28;19956;-76
2021/04/16 03:11:55;;;;;;;;;;;2.60;99.90;;;;;;5000680;28;19929;-75
2021/04/16 03:14:22;;;;;;;;;;;2.60;99.90;;;;;;5002442;28;19965;-76
2021/04/16 03:16:50;;;;;;;;;;;2.50;99.90;;;;;;5000725;28;19922;-79
2021/04/16 03:19:17;;;;;;;;;;;2.60;99.90;;;;;;5001079;28;20324;-76
2021/04/16 03:21:44;;;;;;;;;;;2.60;99.90;;;;;;5001828;28;19993;-76
2021/04/16 03:24:12;;;;;;;;;;;2.60;99.90;;;;;;5000534;28;19926;-77
2021/04/16 03:26:40;;;;;;;;;;;2.60;99.90;;;;;;5000759;28;19928;-77
2021/04/16 03:29:07;;;;;;;;;;;2.50;99.90;;;;;;4999914;28;19921;-76
2021/04/16 03:31:34;;;;;;;;;;;2.60;99.90;;;;;;4997455;28;19922;-77
2021/04/16 03:34:03;;;;;;;;;;;2.60;99.90;;;;;;4998370;28;20398;-75
2021/04/16 03:36:31;;;;;;;;;;;2.60;99.90;;;;;;4998879;28;19921;-77
2021/04/16 03:38:59;;;;;;;;;;;2.60;99.90;;;;;;4998665;28;20032;-77
2021/04/16 03:41:26;;;;;;;;;;;2.50;99.90;;;;;;4995761;28;19972;-77
2021/04/16 03:43:54;;;;;;;;;;;2.50;99.90;;;;;;4998478;28;20360;-77
2021/04/16 03:46:22;;;;;;;;;;;2.50;99.90;;;;;;4996747;28;19940;-76
2021/04/16 03:48:50;;;;;;;;;;;2.50;99.90;;;;;;4980080;28;19969;-76
2021/04/16 03:51:17;;;;;;;;;;;2.50;99.90;;;;;;4997668;28;19922;-75
2021/04/16 03:53:45;;;;;;;;;;;2.50;99.90;;;;;;4999846;28;20037;-76
2021/04/16 03:56:13;;;;;;;;;;;2.50;99.90;;;;;;5001623;28;20418;-76
2021/04/16 03:58:41;;;;;;;;;;;2.50;99.90;;;;;;5002064;28;19922;-78
2021/04/16 04:01:09;;;;;;;;;;;2.50;99.90;;;;;;4999723;28;19965;-77
2021/04/16 04:03:37;;;;;;;;;;;2.50;99.90;;;;;;5000177;28;19960;-76
2021/04/16 04:06:05;;;;;;;;;;;2.50;99.90;;;;;;5000156;28;20272;-76
2021/04/16 04:08:33;;;;;;;;;;;2.50;99.90;;;;;;5004391;28;19925;-76
2021/04/16 04:11:01;;;;;;;;;;;2.40;99.90;;;;;;5004396;28;19922;-76
2021/04/16 04:13:28;;;;;;;;;;;2.50;99.90;;;;;;5003867;28;19964;-75
2021/04/16 04:15:57;;;;;;;;;;;2.40;99.90;;;;;;5002636;28;19969;-76
2021/04/16 04:18:29;;;;;;;;;;;2.30;99.90;;;;;;4999938;28;19926;-77
2021/04/16 04:20:57;;;;;;;;;;;2.40;99.90;;;;;;4999960;28;20302;-77
2021/04/16 04:23:25;;;;;;;;;;;2.40;99.90;;;;;;5000267;28;19921;-76
2021/04/16 04:25:52;;;;;;;;;;;2.40;99.90;;;;;;5001178;28;20201;-76
2021/04/16 04:28:20;;;;;;;;;;;2.40;99.90;;;;;;5001753;28;19921;-76
2021/04/16 04:30:50;;;;;;;;;;;2.40;99.90;;;;;;5000685;28;20406;-76
2021/04/16 04:33:17;;;;;;;;;;;2.40;99.90;;;;;;5000992;28;19968;-76
2021/04/16 04:35:47;;;;;;;;;;;2.40;99.90;;;;;;5002744;28;19926;-76
2021/04/16 04:38:14;;;;;;;;;;;2.20;99.90;;;;;;5001218;28;20449;-76
2021/04/16 04:40:41;;;;;;;;;;;2.30;99.90;;;;;;5001280;28;20331;-75
2021/04/16 04:46:01;;;;;;;;;;;2.30;99.90;;;;;;5001333;28;20256;-76
2021/04/16 04:48:28;;;;;;;;;;;2.40;99.90;;;;;;4985537;28;19947;-77
2021/04/16 04:50:57;;;;;;;;;;;2.30;99.90;;;;;;5003112;28;20268;-76
2021/04/16 04:53:24;;;;;;;;;;;2.30;99.90;;;;;;5003167;28;19953;-76
2021/04/16 04:55:53;;;;;;;;;;;2.30;99.90;;;;;;5002019;28;19929;-80
2021/04/16 04:58:20;;;;;;;;;;;2.30;99.90;;;;;;5003797;28;19961;-75
2021/04/16 05:00:48;;;;;;;;;;;2.30;99.90;;;;;;5006145;28;19922;-77
2021/04/16 05:03:15;;;;;;;;;;;2.30;99.90;;;;;;4984486;28;19921;-78
2021/04/16 05:05:42;;;;;;;;;;;2.30;99.90;;;;;;5001766;28;19925;-77
2021/04/16 05:08:10;;;;;;;;;;;2.30;99.90;;;;;;5002210;28;19929;-78
2021/04/16 05:10:38;;;;;;;;;;;2.40;99.90;;;;;;5003264;28;19957;-78
2021/04/16 05:13:06;;;;;;;;;;;2.40;99.90;;;;;;5000206;28;19972;-76
2021/04/16 05:15:33;;;;;;;;;;;2.50;99.90;;;;;;5016680;22;19922;31
2021/04/16 05:18:01;;;;;;;;;;;2.50;99.90;;;;;;5013770;28;19952;-73
2021/04/16 05:20:29;;;;;;;;;;;2.50;99.90;;;;;;5016352;28;19989;-74
2021/04/16 05:25:50;;;;;;;;;;;2.60;99.90;;;;;;4999946;28;19922;-73
2021/04/16 05:28:17;;;;;;;;;;;2.70;99.90;;;;;;5031487;28;19963;-73
2021/04/16 05:30:45;;;;;;;;;;;2.60;99.90;;;;;;5031894;28;19961;-73
2021/04/16 05:33:12;;;;;;;;;;;2.70;99.90;;;;;;5016766;28;19922;-73
2021/04/16 05:35:39;;;;;;;;;;;2.80;99.90;;;;;;5032508;28;19925;-74
2021/04/16 05:38:12;;;;;;;;;;;2.90;99.90;;;;;;5017237;28;19913;-73
2021/04/16 05:40:41;;;;;;;;;;;3.10;99.90;;;;;;4983919;28;19909;-74
2021/04/16 05:43:09;;;;;;;;;;;3.30;99.90;;;;;;5033346;28;19921;-73
2021/04/16 05:45:41;;;;;;;;;;;3.50;99.90;;;;;;4998306;28;19921;-74
2021/04/16 05:48:09;;;;;;;;;;;3.80;99.90;;;;;;4999651;28;19948;-74
2021/04/16 05:50:46;;;;;;;;;;;4.20;99.90;;;;;;5016671;28;19922;-74
2021/04/16 05:53:40;;;;;;;;;;;4.40;99.90;;;;;;5016007;28;19922;-75
2021/04/16 05:56:07;;;;;;;;;;;4.50;99.90;;;;;;5015866;28;19905;-73
2021/04/16 05:58:36;;;;;;;;;;;4.80;99.90;;;;;;5014058;28;19929;-73
2021/04/16 06:01:03;;;;;;;;;;;4.90;99.90;;;;;;5015293;28;19910;-74
2021/04/16 06:03:31;;;;;;;;;;;4.80;99.90;;;;;;5016925;28;19906;-74
2021/04/16 06:06:00;;;;;;;;;;;5.60;99.90;;;;;;5000362;28;19949;-75
2021/04/16 06:08:27;;;;;;;;;;;6.20;99.90;;;;;;4992214;28;19957;-74
2021/04/16 06:10:56;;;;;;;;;;;6.50;99.90;;;;;;4997770;28;20379;-74
2021/04/16 06:13:28;;;;;;;;;;;6.80;99.90;;;;;;4995925;28;19921;-74
2021/04/16 06:15:59;;;;;;;;;;;6.90;99.90;;;;;;4995519;28;20296;-74
2021/04/16 06:18:26;;;;;;;;;;;6.60;99.90;;;;;;4993646;28;20349;-78
2021/04/16 06:20:54;;;;;;;;;;;6.00;99.90;;;;;;4998059;28;19925;-75
2021/04/16 06:23:22;;;;;;;;;;;5.50;99.90;;;;;;4995574;28;19929;-75
2021/04/16 06:25:49;;;;;;;;;;;5.40;99.90;;;;;;4995871;28;20352;-75
2021/04/16 06:28:17;;;;;;;;;;;5.10;99.90;;;;;;4979025;28;19949;-74
2021/04/16 06:30:46;;;;;;;;;;;5.10;99.90;;;;;;4993819;28;19922;-76
2021/04/16 06:33:18;;;;;;;;;;;5.10;99.90;;;;;;4978301;28;19921;-74
2021/04/16 06:35:49;;;;;;;;;;;5.20;99.90;;;;;;4979766;28;20290;-75
2021/04/16 06:38:17;;;;;;;;;;;5.20;99.90;;;;;;4993932;28;19968;-74
2021/04/16 06:40:46;;;;;;;;;;;5.40;99.90;;;;;;4979090;28;19976;-76
2021/04/16 06:43:15;;;;;;;;;;;5.80;99.90;;;;;;4978508;28;19922;-76
2021/04/16 06:45:44;;;;;;;;;;;6.20;99.90;;;;;;4977150;28;19929;-74
2021/04/16 06:48:37;;;;;;;;;;;7.10;99.10;;;;;;4978913;28;19922;-74
2021/04/16 06:51:07;;;;;;;;;;;6.70;98.90;;;;;;4994161;28;20020;-76
2021/04/16 06:53:39;;;;;;;;;;;6.60;99.20;;;;;;4993728;28;20346;-74
2021/04/16 06:56:07;;;;;;;;;;;6.40;99.60;;;;;;4993947;28;19921;-76
2021/04/16 06:58:37;;;;;;;;;;;5.60;99.90;;;;;;4977941;28;19928;-75
2021/04/16 07:01:12;;;;;;;;;;;5.30;99.90;;;;;;4992869;28;19926;-75
2021/04/16 07:04:05;;;;;;;;;;;5.00;99.90;;;;;;4995437;28;19922;-75
2021/04/16 07:06:34;;;;;;;;;;;4.90;99.90;;;;;;4995294;28;19921;-75
2021/04/16 07:09:03;;;;;;;;;;;5.00;99.90;;;;;;4995699;28;19921;-75
2021/04/16 07:11:33;;;;;;;;;;;6.80;99.60;;;;;;4993973;28;19922;-75
2021/04/16 07:14:01;;;;;;;;;;;7.10;97.70;;;;;;4994052;28;20375;-75
2021/04/16 07:16:31;;;;;;;;;;;7.80;96.20;;;;;;4993156;28;19921;-75
2021/04/16 07:19:01;;;;;;;;;;;7.80;96.20;;;;;;4994260;28;19926;-75
2021/04/16 07:21:29;;;;;;;;;;;7.10;97.00;;;;;;4993900;28;20387;-75
2021/04/16 07:24:01;;;;;;;;;;;6.40;98.00;;;;;;4977457;28;20367;-75
2021/04/16 07:26:38;;;;;;;;;;;6.40;98.70;;;;;;4995816;28;20367;-75
2021/04/16 07:29:07;;;;;;;;;;;7.30;98.00;;;;;;4981679;28;19922;-75
2021/04/16 07:31:47;;;;;;;;;;;9.80;92.70;;;;;;4981059;28;20295;-76
2021/04/16 07:34:33;;;;;;;;;;;9.70;88.60;;;;;;4982090;28;19925;-75
2021/04/16 07:37:10;;;;;;;;;;;8.20;92.10;;;;;;4998064;28;19929;-75
2021/04/16 07:39:45;;;;;;;;;;;6.80;95.40;;;;;;4981846;28;19922;-75
2021/04/16 07:42:15;;;;;;;;;;;6.10;97.70;;;;;;4981802;28;20009;-78
2021/04/16 07:44:56;;;;;;;;;;;6.20;98.80;;;;;;4997874;28;19922;-75
2021/04/16 07:47:25;;;;;;;;;;;6.60;98.00;;;;;;4980566;28;19984;-78
2021/04/16 07:49:54;;;;;;;;;;;8.20;94.90;;;;;;4982157;28;19922;-75
2021/04/16 07:52:27;;;;;;;;;;;8.60;91.70;;;;;;4983721;28;19991;-75
2021/04/16 07:55:24;;;;;;;;;;;8.30;91.70;;;;;;5000430;28;19983;-75
2021/04/16 07:58:07;;;;;;;;;;;8.20;91.20;;;;;;4981854;28;19930;-76
2021/04/16 08:00:38;;;;;;;;;;;7.90;92.30;;;;;;4981402;28;19937;-75
2021/04/16 08:03:07;;;;;;;;;;;8.00;91.50;;;;;;4982232;28;19922;-75
2021/04/16 08:05:37;;;;;;;;;;;8.10;91.60;;;;;;4982924;28;20012;-76
2021/04/16 08:08:06;;;;;;;;;;;7.90;92.40;;;;;;4982610;28;19921;-75
2021/04/16 08:10:36;;;;;;;;;;;7.90;91.20;;;;;;4982228;28;20027;-76
2021/04/16 08:13:07;;;;;;;;;;;7.60;92.10;;;;;;4998255;28;20379;-75
2021/04/16 08:15:35;;;;;;;;;;;7.50;92.70;;;;;;4980258;28;19997;-75
2021/04/16 08:18:09;;;;;;;;;;;7.50;92.60;;;;;;4997340;28;19949;-75
2021/04/16 08:20:43;;;;;;;;;;;8.10;92.40;;;;;;4981562;28;19933;-76
2021/04/16 08:23:14;;;;;;;;;;;7.70;92.00;;;;;;4997641;28;19926;-75
2021/04/16 08:25:43;;;;;;;;;;;7.00;93.00;;;;;;4981045;28;20445;-75
2021/04/16 08:28:14;;;;;;;;;;;6.70;93.90;;;;;;5000389;28;20383;-75
2021/04/16 08:30:48;;;;;;;;;;;6.40;94.30;;;;;;4995301;28;19932;-75
2021/04/16 08:33:22;;;;;;;;;;;6.70;94.60;;;;;;4981164;28;20378;-75
2021/04/16 08:35:54;;;;;;;;;;;6.20;94.60;;;;;;5004883;28;20371;-75
2021/04/16 08:38:23;;;;;;;;;;;6.10;95.20;;;;;;4985538;28;20316;-75
2021/04/16 08:40:52;;;;;;;;;;;6.00;95.30;;;;;;4980751;28;19926;-77
2021/04/16 08:43:24;;;;;;;;;;;5.80;95.70;;;;;;4996982;28;19926;-75
2021/04/16 08:46:25;;;;;;;;;;;5.80;96.10;;;;;;4963049;28;19926;-75
2021/04/16 08:48:55;;;;;;;;;;;5.90;96.70;;;;;;4964292;28;20457;-74
2021/04/16 08:51:28;;;;;;;;;;;5.70;96.90;;;;;;4996420;28;19945;-75
2021/04/16 08:53:59;;;;;;;;;;;5.70;97.20;;;;;;4980141;28;20045;-74
2021/04/16 08:56:28;;;;;;;;;;;5.60;97.30;;;;;;4996180;28;19933;-74
2021/04/16 08:58:56;;;;;;;;;;;5.60;97.00;;;;;;4963729;28;20362;-74
2021/04/16 09:01:34;;;;;;;;;;;5.50;97.20;;;;;;4978980;28;19926;-74
2021/04/16 09:04:13;;;;;;;;;;;5.50;97.20;;;;;;4996398;28;20297;-74
2021/04/16 09:06:46;;;;;;;;;;;5.80;97.10;;;;;;4964102;28;19926;-74
2021/04/16 09:09:15;;;;;;;;;;;6.00;96.40;;;;;;4996008;28;19965;-74
2021/04/16 09:11:52;;;;;;;;;;;6.40;95.90;;;;;;4979818;28;19926;-75
2021/04/16 09:14:38;;;;;;;;;;;6.40;95.00;;;;;;4996124;28;19933;-75
2021/04/16 09:17:06;;;;;;;;;;;6.20;94.90;;;;;;4978314;28;19961;-75
2021/04/16 09:19:42;;;;;;;;;;;6.40;95.80;;;;;;4995546;28;20384;-74
2021/04/16 09:22:16;;;;;;;;;;;6.60;95.10;;;;;;4996316;28;19933;-75
2021/04/16 09:24:46;;;;;;;;;;;6.30;94.30;;;;;;4979673;28;19930;-75
2021/04/16 09:27:38;;;;;;;;;;;6.50;94.80;;;;;;4979227;28;19922;-75
2021/04/16 09:30:21;;;;;;;;;;;6.20;94.30;;;;;;4980849;28;19972;-75
2021/04/16 09:32:49;;;;;;;;;;;6.40;94.90;;;;;;4980518;28;19921;-75
2021/04/16 09:38:38;;;;;;;;;;;5.90;95.70;;;;;;4996116;28;19922;-75
2021/04/16 09:41:31;;;;;;;;;;;5.70;96.40;;;;;;4995306;28;19922;-75
2021/04/16 09:44:00;;;;;;;;;;;5.80;96.60;;;;;;4978730;28;20016;-75
2021/04/16 09:46:44;;;;;;;;;;;5.80;96.60;;;;;;4978276;28;19984;-74
2021/04/16 09:49:29;;;;;;;;;;;5.80;96.40;;;;;;4978961;28;19922;-74
2021/04/16 09:52:01;;;;;;;;;;;6.00;96.30;;;;;;4976091;28;19921;-74
2021/04/16 09:54:39;;;;;;;;;;;6.20;96.20;;;;;;4995719;28;20364;-75
2021/04/16 09:57:31;;;;;;;;;;;6.10;95.90;;;;;;4978585;28;19945;-75
2021/04/16 10:00:09;;;;;;;;;;;6.20;95.80;;;;;;4978562;28;20029;-74
2021/04/16 10:02:39;;;;;;;;;;;6.60;95.50;;;;;;4994851;28;20016;-75
2021/04/16 10:05:10;;;;;;;;;;;6.80;94.70;;;;;;4979007;28;20262;-74
2021/04/16 10:07:41;;;;;;;;;;;7.30;93.90;;;;;;4994857;28;19922;-75
2021/04/16 10:10:13;;;;;;;;;;;7.60;92.90;;;;;;4979087;28;19925;-75
2021/04/16 10:12:40;;;;;;;;;;;7.70;93.10;;;;;;4978544;28;19969;-74
2021/04/16 10:15:15;;;;;;;;;;;7.40;92.70;;;;;;4978071;28;20024;-74
2021/04/16 10:17:53;;;;;;;;;;;6.80;93.00;;;;;;5010384;28;20260;-74
2021/04/16 10:20:24;;;;;;;;;;;6.60;93.70;;;;;;4995041;28;19968;-74
2021/04/16 10:22:58;;;;;;;;;;;6.80;93.90;;;;;;4962438;28;19948;-77
2021/04/16 12:39:03;;;;;;;;;;;6.80;96.70;;;;;;5072397;28;19925;-70
2021/04/16 12:41:32;;;;;;;;;;;6.70;96.90;;;;;;5071655;28;19924;-73
2021/04/16 12:44:02;;;;;;;;;;;6.80;96.90;;;;;;5071808;28;20281;-69
2021/04/16 12:46:32;;;;;;;;;;;6.90;96.60;;;;;;5082930;28;19924;-70
2021/04/16 12:48:59;;;;;;;;;;;6.90;96.60;;;;;;5090552;28;20399;-70
2021/04/16 12:51:28;;;;;;;;;;;6.90;96.60;;;;;;5091994;28;20283;-72
2021/04/16 12:53:56;;;;;;;;;;;6.80;96.80;;;;;;5091870;28;19928;-71
2021/04/16 12:56:24;;;;;;;;;;;6.80;96.60;;;;;;5091509;28;19935;-69
2021/04/16 12:58:56;;;;;;;;;;;6.90;96.80;;;;;;5091499;28;19925;-71
2021/04/16 13:01:28;;;;;;;;;;;6.70;96.60;;;;;;5090767;28;19929;-70
2021/04/16 13:03:55;;;;;;;;;;;6.50;96.80;;;;;;5091965;28;19929;-70
2021/04/16 13:06:24;;;;;;;;;;;6.50;97.10;;;;;;5091929;28;20386;-73
2021/04/16 13:08:53;;;;;;;;;;;6.30;97.20;;;;;;5092574;28;19924;-69
2021/04/16 13:11:22;;;;;;;;;;;6.60;97.60;;;;;;5095574;28;19925;-69
2021/04/16 13:13:50;;;;;;;;;;;6.80;97.10;;;;;;5106886;28;19928;-69
2021/04/16 13:16:18;;;;;;;;;;;6.70;97.00;;;;;;5090249;28;19924;-69
2021/04/16 13:18:47;;;;;;;;;;;6.70;97.50;;;;;;5091695;28;20467;-72
2021/04/16 13:21:21;;;;;;;;;;;6.60;97.60;;;;;;5092572;28;19970;-72
2021/04/16 13:23:48;;;;;;;;;;;6.40;97.80;;;;;;5092500;28;19970;-70
2021/04/16 13:26:16;;;;;;;;;;;6.70;98.10;;;;;;5092538;28;19964;-70
2021/04/16 13:28:45;;;;;;;;;;;6.50;98.10;;;;;;5090706;28;19924;-70
2021/04/16 13:31:12;;;;;;;;;;;6.60;98.10;;;;;;5076388;28;19996;-70
2021/04/16 13:33:41;;;;;;;;;;;6.70;98.00;;;;;;5079580;28;20014;-70
2021/04/16 13:36:12;;;;;;;;;;;6.70;97.90;;;;;;5079793;28;20087;-70
2021/04/16 13:38:40;;;;;;;;;;;6.60;98.00;;;;;;5078978;28;19927;-70
2021/04/16 13:41:07;;;;;;;;;;;6.70;98.20;;;;;;5079354;28;20406;-70
2021/04/16 13:43:35;;;;;;;;;;;6.50;98.20;;;;;;5078970;28;19924;-70
2021/04/16 13:46:04;;;;;;;;;;;6.60;98.60;;;;;;5078939;28;19921;-70
2021/04/16 13:48:32;;;;;;;;;;;6.30;98.80;;;;;;5080219;28;20274;-73
2021/04/16 13:51:00;;;;;;;;;;;6.40;98.90;;;;;;5078855;28;19924;-71
2021/04/16 13:53:27;;;;;;;;;;;6.40;98.80;;;;;;5078516;28;20326;-70
2021/04/16 13:55:54;;;;;;;;;;;6.30;99.00;;;;;;5078640;28;20375;-71
2021/04/16 13:58:22;;;;;;;;;;;6.40;98.90;;;;;;5075708;28;20008;-71
2021/04/16 14:00:50;;;;;;;;;;;6.60;98.50;;;;;;5075633;28;19929;-70
2021/04/16 14:03:24;;;;;;;;;;;6.60;98.30;;;;;;5076698;28;19927;-70
2021/04/16 14:05:53;;;;;;;;;;;6.60;98.60;;;;;;5075739;28;19927;-70
2021/04/16 14:08:26;;;;;;;;;;;6.90;98.50;;;;;;5077095;28;20272;-71
2021/04/16 14:10:54;;;;;;;;;;;6.90;98.40;;;;;;5077351;28;19920;-69
2021/04/16 14:13:21;;;;;;;;;;;7.20;98.00;;;;;;5076817;28;19989;-72
2021/04/16 14:15:48;;;;;;;;;;;7.20;97.60;;;;;;5076685;28;19929;-70
2021/04/16 14:18:24;;;;;;;;;;;7.30;97.40;;;;;;5077292;28;20360;-69
2021/04/16 14:20:52;;;;;;;;;;;7.00;97.50;;;;;;5077270;28;19920;-69
2021/04/16 14:23:24;;;;;;;;;;;7.00;97.90;;;;;;5077776;28;19921;-70
2021/04/16 14:25:51;;;;;;;;;;;6.70;98.20;;;;;;5078209;28;19974;-72
2021/04/16 14:28:19;;;;;;;;;;;6.80;98.50;;;;;;5076307;28;20379;-68
2021/04/16 14:30:47;;;;;;;;;;;6.80;98.20;;;;;;5075890;28;19931;-72
2021/04/16 14:33:15;;;;;;;;;;;6.80;98.20;;;;;;5076700;28;19935;-71
2021/04/16 14:35:47;;;;;;;;;;;7.20;98.10;;;;;;5077623;28;19920;-69
2021/04/16 14:38:15;;;;;;;;;;;7.10;97.80;;;;;;5076410;28;19921;-69
2021/04/16 14:40:43;;;;;;;;;;;7.10;98.00;;;;;;5076766;28;19960;-69
2021/04/16 14:43:10;;;;;;;;;;;7.00;98.20;;;;;;5076950;28;19956;-69
2021/04/16 14:45:38;;;;;;;;;;;7.10;98.10;;;;;;5076474;28;19920;-70
2021/04/16 14:48:07;;;;;;;;;;;7.00;98.60;;;;;;5075746;28;19924;-69
2021/04/16 14:50:34;;;;;;;;;;;7.00;98.50;;;;;;5076800;28;19920;-70
2021/04/16 14:53:05;;;;;;;;;;;6.80;98.60;;;;;;5075425;28;19920;-69
2021/04/16 14:55:34;;;;;;;;;;;6.80;98.80;;;;;;5078713;28;19932;-73
2021/04/16 14:58:03;;;;;;;;;;;6.90;98.90;;;;;;5078885;28;19920;-69
2021/04/16 15:00:34;;;;;;;;;;;6.90;98.90;;;;;;5093057;28;19920;-69
2021/04/16 15:03:04;;;;;;;;;;;6.80;98.80;;;;;;5079039;28;19920;-69
2021/04/16 15:05:32;;;;;;;;;;;7.00;98.70;;;;;;5078564;28;19920;-71
2021/04/16 15:08:01;;;;;;;;;;;6.80;98.60;;;;;;5078199;28;19920;-69
2021/04/16 15:10:31;;;;;;;;;;;6.60;98.90;;;;;;5078136;28;19924;-70
2021/04/16 15:12:58;;;;;;;;;;;6.60;99.30;;;;;;5079131;28;19955;-70
2021/04/16 15:15:27;;;;;;;;;;;6.60;99.20;;;;;;5078477;28;19926;-72
2021/04/16 15:17:55;;;;;;;;;;;6.60;99.30;;;;;;5078190;28;20256;-70
2021/04/16 15:20:23;;;;;;;;;;;6.50;99.30;;;;;;5076450;28;19927;-70
2021/04/16 15:22:50;;;;;;;;;;;6.40;99.70;;;;;;5077407;28;20426;-71
2021/04/16 15:25:18;;;;;;;;;;;6.60;99.90;;;;;;5093383;28;20264;-70
2021/04/16 15:28:02;;;;;;;;;;;6.80;99.50;;;;;;5075977;28;19927;-73
2021/04/16 15:30:31;;;;;;;;;;;6.90;99.20;;;;;;5076448;28;19920;-69
2021/04/16 15:33:00;;;;;;;;;;;6.80;99.20;;;;;;5078226;28;20348;-70
2021/04/16 15:46:44;;;;;;;;;;;6.80;99.30;;;;;;5075366;28;19959;-70
2021/04/16 15:49:12;;;;;;;;;;;6.60;99.50;;;;;;5075483;28;19920;-71
2021/04/16 15:51:40;;;;;;;;;;;6.60;99.90;;;;;;5075066;28;20294;-69
2021/04/16 15:54:08;;;;;;;;;;;6.60;99.90;;;;;;5076477;28;19920;-70
2021/04/16 15:56:36;;;;;;;;;;;6.60;99.90;;;;;;5075516;28;19920;-69
2021/04/16 15:59:06;;;;;;;;;;;6.50;99.90;;;;;;5076040;28;19951;-73
2021/04/16 16:01:33;;;;;;;;;;;6.50;99.90;;;;;;5074235;28;19920;-74
2021/04/16 16:04:01;;;;;;;;;;;6.60;99.90;;;;;;5075130;28;20333;-73
2021/04/16 16:06:29;;;;;;;;;;;6.50;99.60;;;;;;5075581;28;20271;-71
2021/04/16 16:08:58;;;;;;;;;;;6.60;99.90;;;;;;5075506;28;20259;-70
2021/04/16 16:11:28;;;;;;;;;;;6.70;99.70;;;;;;5076131;28;19934;-69
2021/04/16 16:13:57;;;;;;;;;;;6.70;99.60;;;;;;5074642;28;20352;-70
2021/04/16 16:16:26;;;;;;;;;;;6.80;99.60;;;;;;5074260;28;19920;-70
2021/04/16 16:18:53;;;;;;;;;;;6.70;99.70;;;;;;5057212;22;19922;-67
2021/04/16 16:21:21;;;;;;;;;;;6.70;99.90;;;;;;5018302;28;20280;-66
2021/04/16 16:23:50;;;;;;;;;;;6.60;99.90;;;;;;5000904;28;19921;-65
2021/04/16 16:26:20;;;;;;;;;;;6.50;99.90;;;;;;4995954;28;19921;-66
2021/04/16 16:28:51;;;;;;;;;;;6.60;99.90;;;;;;4994278;28;20318;-65
2021/04/16 16:31:18;;;;;;;;;;;6.60;99.90;;;;;;4994336;28;19928;-65
2021/04/16 16:33:47;;;;;;;;;;;6.50;99.90;;;;;;4995336;28;19983;-65
2021/04/16 16:36:15;;;;;;;;;;;6.30;99.90;;;;;;4993465;28;19922;-65
2021/04/16 16:38:42;;;;;;;;;;;6.30;99.90;;;;;;4992863;28;19957;-65
2021/04/16 16:41:10;;;;;;;;;;;6.20;99.90;;;;;;4993973;28;19933;-65
2021/04/16 16:43:40;;;;;;;;;;;6.20;99.90;;;;;;4993896;28;25159;-65
2021/04/16 16:46:09;;;;;;;;;;;6.20;99.90;;;;;;4991717;28;19957;-65
2021/04/16 16:48:37;;;;;;;;;;;6.10;99.90;;;;;;4994664;28;19988;-64
2021/04/16 16:51:07;;;;;;;;;;;6.00;99.90;;;;;;4993081;28;20020;-65
2021/04/16 16:53:34;;;;;;;;;;;6.00;99.90;;;;;;4994288;28;19933;-67
2021/04/16 16:56:03;;;;;;;;;;;6.00;99.90;;;;;;4976879;28;19973;-64
2021/04/16 16:58:33;;;;;;;;;;;6.10;99.90;;;;;;4993847;28;20373;-64
2021/04/16 17:01:05;;;;;;;;;;;6.00;99.90;;;;;;4993649;28;19942;-65
2021/04/16 17:03:33;;;;;;;;;;;6.00;99.90;;;;;;4994427;28;19936;-64
2021/04/16 17:06:00;;;;;;;;;;;6.00;99.90;;;;;;4997156;28;20028;-64
2021/04/16 17:08:28;;;;;;;;;;;5.90;99.90;;;;;;4996896;28;19930;-64
2021/04/16 17:13:49;;;;;;;;;;;5.70;99.90;;;;;;4997898;28;20022;-67
2021/04/16 17:16:17;;;;;;;;;;;5.80;99.90;;;;;;4996770;28;19976;-66
2021/04/16 17:18:46;;;;;;;;;;;5.80;99.90;;;;;;4997410;28;19926;-65
2021/04/16 17:21:15;;;;;;;;;;;5.80;99.90;;;;;;4997914;28;20301;-65
2021/04/16 17:23:43;;;;;;;;;;;5.70;99.90;;;;;;4997918;28;19925;-65
2021/04/16 17:26:11;;;;;;;;;;;5.60;99.90;;;;;;4998245;28;19930;-65